Putnam Valley, New York
Current Conditions -  °F | °C
As of 10:45 PM on Sunday 21 Dec 2014 (Local Time) from KSWF Reporting Station
Overcast Overcast  
Wind Chill: 23°   Ceiling: 2500
Heat Index: 30°   Visibility: 10mi
Dew Point: 28°   Wind: 7mph
Humidity: 93%   Direction: 50°NE
Pressure: 30.34"   Gusts: NA
Location:  41.37°N, 73.84°W
Report Text: KSWF 220345Z 05006KT 10SM OVC025 M01/M02 A3034
Loading
Personal Weather Stations






























Interactive Weather Map New forecast layout! Learn more

10-Day Weather Forecast

Advertisements
Track Severe Weather on mobile